Time;durP1;ratioP1;P1;durP2;ratioP2;P2;SDS_P1;SDS_P2;PMS_P1;PMS_P2;Temp;Humidity;BMP_temperature;BMP_pressure;BME280_temperature;BME280_humidity;BME280_pressure;Samples;Min_cycle;Max_cycle;Signal;HPM_P1;HPM_P2
2020/12/15 00:02:08;;;;;;;7.53;4.80;;;;;;;6.93;91.07;100542.91;5031905;28;20044;-66
2020/12/15 00:04:34;;;;;;;7.68;4.18;;;;;;;6.85;91.00;100524.28;5031835;28;20029;-66
2020/12/15 00:06:59;;;;;;;5.57;3.88;;;;;;;7.04;90.80;100558.69;5035232;28;20025;-66
2020/12/15 00:09:24;;;;;;;5.65;3.83;;;;;;;6.98;91.08;100563.47;5035637;28;20018;-67
2020/12/15 00:11:50;;;;;;;5.97;3.97;;;;;;;6.86;91.36;100534.63;5035422;28;20028;-68
2020/12/15 00:14:15;;;;;;;5.60;4.07;;;;;;;7.13;90.91;100569.50;5035628;28;20053;-66
2020/12/15 00:16:41;;;;;;;6.60;4.30;;;;;;;7.16;90.30;100572.75;5035592;28;20068;-67
2020/12/15 00:19:06;;;;;;;8.23;6.07;;;;;;;6.68;90.79;100511.47;5035360;28;20025;-66
2020/12/15 00:21:32;;;;;;;7.80;5.28;;;;;;;6.86;90.78;100539.84;5035269;28;20030;-66
2020/12/15 00:23:57;;;;;;;6.80;4.55;;;;;;;7.01;90.45;100555.44;5035030;28;20045;-66
2020/12/15 00:26:24;;;;;;;6.22;4.30;;;;;;;6.77;91.34;100521.34;5035310;28;20112;-67
2020/12/15 00:28:50;;;;;;;8.35;6.45;;;;;;;6.99;91.92;100562.56;5035341;28;20461;-66
2020/12/15 00:31:17;;;;;;;9.15;7.53;;;;;;;6.93;92.16;100545.50;5035550;28;20480;-66
2020/12/15 00:33:43;;;;;;;8.32;6.43;;;;;;;7.03;92.11;100566.63;5035615;28;20048;-66
2020/12/15 00:36:09;;;;;;;7.03;5.15;;;;;;;6.97;91.69;100538.34;5035013;28;20029;-66
2020/12/15 00:38:36;;;;;;;7.00;5.60;;;;;;;7.07;91.65;100548.09;5035276;28;20496;-66
2020/12/15 00:41:01;;;;;;;9.50;5.72;;;;;;;7.13;90.96;100535.63;5035254;28;20029;-67
2020/12/15 00:43:27;;;;;;;8.30;4.45;;;;;;;7.34;90.47;100563.75;5035004;28;20036;-67
2020/12/15 00:45:52;;;;;;;5.43;3.80;;;;;;;7.43;89.88;100564.13;5034867;28;20122;-66
2020/12/15 00:48:17;;;;;;;5.90;4.38;;;;;;;7.21;90.21;100531.56;5033861;28;20025;-67
2020/12/15 00:50:43;;;;;;;7.38;4.22;;;;;;;7.41;90.20;100551.16;5034965;28;20029;-66
2020/12/15 00:53:08;;;;;;;8.05;4.90;;;;;;;7.30;89.95;100527.56;5034890;28;20121;-67
2020/12/15 00:55:34;;;;;;;7.82;5.03;;;;;;;7.30;90.11;100536.22;5034959;28;20474;-67
2020/12/15 00:57:59;;;;;;;8.77;5.07;;;;;;;7.32;90.72;100556.97;5034609;28;20064;-67
2020/12/15 01:00:25;;;;;;;7.60;5.22;;;;;;;7.37;91.02;100573.16;5034739;28;20025;-67
2020/12/15 01:02:50;;;;;;;7.60;5.57;;;;;;;7.37;90.71;100567.94;5035159;28;20092;-66
2020/12/15 01:05:16;;;;;;;8.05;5.43;;;;;;;7.17;90.38;100532.72;5034688;28;20037;-66
2020/12/15 01:07:41;;;;;;;10.55;5.75;;;;;;;7.36;90.06;100554.97;5034964;28;20026;-67
2020/12/15 01:10:07;;;;;;;9.18;5.60;;;;;;;7.50;89.58;100576.66;5034650;28;20029;-67
2020/12/15 01:12:33;;;;;;;7.13;5.28;;;;;;;7.36;89.59;100554.97;5034331;28;20041;-67
2020/12/15 01:14:59;;;;;;;11.02;5.68;;;;;;;7.39;90.68;100571.31;5034428;28;20026;-67
2020/12/15 01:17:25;;;;;;;9.85;5.90;;;;;;;7.29;91.44;100568.44;5034383;28;20030;-67
2020/12/15 01:19:50;;;;;;;10.48;6.22;;;;;;;7.41;91.27;100573.78;5034525;28;20044;-67
2020/12/15 01:22:15;;;;;;;7.25;5.35;;;;;;;7.17;89.66;100545.75;5034224;28;20469;-68
2020/12/15 01:24:41;;;;;;;6.47;3.75;;;;;;;7.47;89.05;100560.38;5033487;28;20508;-67
2020/12/15 01:27:06;;;;;;;6.18;3.70;;;;;;;7.39;88.14;100547.84;5033249;28;20473;-67
2020/12/15 01:29:32;;;;;;;8.63;4.07;;;;;;;7.30;88.79;100549.25;5033750;28;20025;-67
2020/12/15 01:32:01;;;;;;;7.55;5.03;;;;;;;7.34;90.24;100568.97;5033469;28;20021;-67
2020/12/15 01:34:27;;;;;;;7.18;4.95;;;;;;;7.28;91.49;100573.72;5032261;28;20083;-67
2020/12/15 01:36:52;;;;;;;6.20;4.75;;;;;;;7.25;91.54;100566.09;5033425;28;20025;-67
2020/12/15 01:39:18;;;;;;;8.02;3.78;;;;;;;7.18;90.04;100546.56;5033152;28;20040;-67
2020/12/15 01:41:43;;;;;;;7.00;3.60;;;;;;;7.19;89.33;100545.63;5033488;28;20030;-67
2020/12/15 01:44:09;;;;;;;7.68;4.10;;;;;;;7.27;90.34;100566.84;5033420;28;20070;-66
2020/12/15 01:46:34;;;;;;;6.35;4.10;;;;;;;7.23;89.66;100547.97;5033955;28;20025;-66
2020/12/15 01:49:00;;;;;;;5.95;3.90;;;;;;;7.21;89.85;100544.59;5033906;28;20056;-66
2020/12/15 01:51:28;;;;;;;6.88;3.63;;;;;;;7.49;90.00;100580.22;5033872;28;20025;-67
2020/12/15 01:53:55;;;;;;;8.43;4.03;;;;;;;7.53;90.41;100580.84;5033819;28;20034;-67
2020/12/15 01:56:21;;;;;;;5.95;3.78;;;;;;;7.58;89.22;100570.94;5033901;28;20022;-67
2020/12/15 01:58:52;;;;;;;6.13;3.58;;;;;;;7.50;88.44;100581.88;5033837;28;20025;-66
2020/12/15 02:01:18;;;;;;;7.25;4.13;;;;;;;7.47;88.21;100576.84;5033604;28;20033;-67
2020/12/15 02:03:43;;;;;;;5.55;3.60;;;;;;;7.42;88.35;100578.91;5033380;28;20182;-67
2020/12/15 02:06:09;;;;;;;6.05;3.22;;;;;;;7.41;88.38;100579.00;5032177;28;20033;-67
2020/12/15 02:08:35;;;;;;;8.77;4.70;;;;;;;7.57;87.96;100579.72;5033104;28;20112;-67
2020/12/15 02:11:01;;;;;;;7.20;4.03;;;;;;;7.46;87.41;100556.06;5033192;28;20033;-66
2020/12/15 02:13:27;;;;;;;7.90;4.82;;;;;;;7.14;88.43;100527.69;5033390;28;20029;-66
2020/12/15 02:15:52;;;;;;;6.22;4.18;;;;;;;7.49;89.06;100587.16;5033322;28;20033;-67
2020/12/15 02:18:18;;;;;;;6.10;4.25;;;;;;;7.43;88.57;100582.38;5033107;28;20465;-66
2020/12/15 02:20:43;;;;;;;5.80;4.07;;;;;;;7.36;89.27;100586.28;5033087;28;20396;-67
2020/12/15 02:23:09;;;;;;;5.93;4.40;;;;;;;7.34;88.92;100597.66;5032675;28;20072;-67
2020/12/15 02:25:34;;;;;;;6.85;4.28;;;;;;;7.35;89.37;100603.69;5032961;28;20068;-67
2020/12/15 02:28:00;;;;;;;6.75;3.88;;;;;;;7.44;88.55;100602.28;5032340;28;20033;-67
2020/12/15 02:30:25;;;;;;;8.20;4.10;;;;;;;7.41;88.15;100584.22;5032819;28;20090;-66
2020/12/15 02:32:51;;;;;;;9.32;4.63;;;;;;;7.34;88.50;100566.34;5032656;28;20041;-67
2020/12/15 02:35:16;;;;;;;6.25;4.20;;;;;;;7.54;88.86;100603.38;5032829;28;20167;-67
2020/12/15 02:37:42;;;;;;;9.38;5.07;;;;;;;7.62;88.76;100603.72;5032660;28;20033;-67
2020/12/15 02:40:07;;;;;;;8.50;5.07;;;;;;;7.57;88.18;100593.59;5032942;28;20028;-67
2020/12/15 02:42:33;;;;;;;7.60;4.60;;;;;;;7.62;87.96;100605.50;5032879;28;20033;-67
2020/12/15 02:44:59;;;;;;;7.40;4.40;;;;;;;7.72;87.86;100596.13;5031453;28;20091;-67
2020/12/15 02:47:25;;;;;;;7.80;4.65;;;;;;;7.76;87.71;100601.06;5032970;28;20033;-67
2020/12/15 02:49:51;;;;;;;8.10;5.03;;;;;;;7.51;87.40;100567.06;5032926;28;20025;-67
2020/12/15 02:52:19;;;;;;;10.23;5.18;;;;;;;7.58;87.62;100578.78;5031454;28;20465;-67
2020/12/15 02:54:48;;;;;;;10.32;4.75;;;;;;;7.75;87.59;100607.22;5032672;28;20105;-67
2020/12/15 02:57:14;;;;;;;12.18;6.32;;;;;;;7.78;87.00;100596.56;5032669;28;20026;-67
2020/12/15 02:59:40;;;;;;;10.50;4.57;;;;;;;7.78;87.42;100606.19;5032032;28;20553;-67
2020/12/15 03:02:06;;;;;;;12.80;5.60;;;;;;;7.76;87.65;100605.44;5032040;28;20030;-67
2020/12/15 03:04:31;;;;;;;8.63;4.45;;;;;;;7.67;86.81;100575.56;5032529;28;20083;-66
2020/12/15 03:06:56;;;;;;;11.15;4.35;;;;;;;7.68;86.61;100584.22;5032239;28;20120;-67
2020/12/15 03:09:22;;;;;;;9.15;3.83;;;;;;;7.81;86.29;100611.19;5031750;28;20025;-67
2020/12/15 03:11:47;;;;;;;10.60;4.22;;;;;;;7.75;86.20;100615.03;5032498;28;20033;-67
2020/12/15 03:14:13;;;;;;;10.27;4.78;;;;;;;7.79;87.12;100628.72;5032540;28;20025;-67
2020/12/15 03:16:38;;;;;;;7.90;4.85;;;;;;;7.59;88.58;100627.38;5032469;28;20183;-67
2020/12/15 03:19:04;;;;;;;9.07;5.35;;;;;;;7.41;89.81;100632.00;5032619;28;20041;-67
2020/12/15 03:21:30;;;;;;;10.20;5.63;;;;;;;7.36;89.99;100628.00;5032327;28;20026;-67
2020/12/15 03:23:56;;;;;;;27.00;12.98;;;;;;;7.21;89.31;100608.94;5032037;28;20107;-67
2020/12/15 03:26:23;;;;;;;12.10;6.72;;;;;;;7.29;89.57;100628.41;5032314;28;20022;-66
2020/12/15 03:28:49;;;;;;;15.65;8.18;;;;;;;7.23;90.26;100631.38;5031075;28;20029;-67
2020/12/15 03:31:14;;;;;;;15.45;7.45;;;;;;;7.15;90.59;100612.75;5031223;28;20036;-67
2020/12/15 03:33:41;;;;;;;13.65;6.18;;;;;;;7.34;90.57;100644.59;5032222;28;20401;-67
2020/12/15 03:36:07;;;;;;;10.98;5.88;;;;;;;7.43;90.02;100648.41;5032443;28;20040;-67
2020/12/15 03:38:33;;;;;;;13.00;6.05;;;;;;;7.45;88.84;100656.13;5032656;28;20025;-67
2020/12/15 03:40:58;;;;;;;11.77;6.47;;;;;;;7.27;89.60;100627.66;5036191;28;20473;-67
2020/12/15 03:43:24;;;;;;;11.35;5.75;;;;;;;7.41;89.52;100652.03;5036315;28;20034;-67
2020/12/15 03:45:49;;;;;;;12.68;6.22;;;;;;;7.33;90.59;100670.75;5036572;28;20116;-67
2020/12/15 03:48:14;;;;;;;12.43;5.85;;;;;;;7.18;91.05;100646.47;5036044;28;20021;-67
2020/12/15 03:50:41;;;;;;;14.13;5.90;;;;;;;7.42;91.03;100674.56;5036060;28;20028;-67
2020/12/15 03:53:06;;;;;;;11.27;5.70;;;;;;;7.39;90.41;100677.34;5036069;28;20120;-67
2020/12/15 03:55:31;;;;;;;13.93;5.95;;;;;;;7.17;89.16;100644.78;5035433;28;20104;-67
2020/12/15 03:58:00;;;;;;;13.68;5.25;;;;;;;7.20;87.97;100649.81;5036162;28;20021;-67
2020/12/15 04:00:26;;;;;;;8.15;4.32;;;;;;;7.31;86.89;100651.75;5035949;28;20361;-67
2020/12/15 04:02:51;;;;;;;6.88;3.85;;;;;;;7.08;85.96;100647.97;5035744;28;20030;-67
2020/12/15 04:05:16;;;;;;;6.75;3.50;;;;;;;7.24;84.41;100681.75;5035845;28;20026;-67
2020/12/15 04:07:43;;;;;;;7.38;3.53;;;;;;;7.23;83.85;100682.69;5036038;28;20037;-66
2020/12/15 04:10:09;;;;;;;5.90;3.25;;;;;;;7.14;82.68;100683.25;5035742;28;20033;-67
2020/12/15 04:12:35;;;;;;;5.57;3.40;;;;;;;7.17;81.85;100685.66;5035870;28;20084;-67
2020/12/15 04:15:00;;;;;;;5.65;3.00;;;;;;;7.08;81.76;100656.59;5035394;28;20115;-66
2020/12/15 04:17:26;;;;;;;6.70;3.33;;;;;;;7.29;81.32;100700.56;5035697;28;20035;-67
2020/12/15 04:19:51;;;;;;;5.05;3.20;;;;;;;7.24;81.78;100695.63;5035607;28;20026;-67
2020/12/15 04:22:17;;;;;;;5.88;3.45;;;;;;;6.99;82.65;100665.00;5035243;28;20056;-67
2020/12/15 04:24:42;;;;;;;5.70;3.63;;;;;;;7.19;84.04;100702.91;5035767;28;20021;-67
2020/12/15 04:27:08;;;;;;;7.53;4.20;;;;;;;7.18;82.03;100689.94;5035431;28;20033;-67
2020/12/15 04:29:33;;;;;;;6.38;3.90;;;;;;;7.29;80.91;100701.41;5035514;28;20429;-67
2020/12/15 04:31:59;;;;;;;6.93;3.92;;;;;;;7.09;81.13;100680.94;5034230;28;20051;-67
2020/12/15 04:34:24;;;;;;;6.70;3.90;;;;;;;7.15;80.04;100684.91;5033807;28;20041;-67
2020/12/15 04:36:50;;;;;;;6.18;3.55;;;;;;;7.26;80.96;100719.84;5035232;28;20105;-67
2020/12/15 04:39:15;;;;;;;7.93;4.18;;;;;;;7.15;82.74;100709.19;5035201;28;20026;-67
2020/12/15 04:41:41;;;;;;;10.35;5.47;;;;;;;7.02;81.34;100687.41;5035035;28;20032;-67
2020/12/15 04:44:08;;;;;;;11.40;6.03;;;;;;;7.02;82.41;100695.22;5034897;28;20028;-67
2020/12/15 04:47:02;;;;;;;11.25;6.10;;;;;;;7.12;82.67;100722.44;5034952;28;20037;-67
2020/12/15 04:49:37;;;;;;;13.82;7.50;;;;;;;6.94;82.32;100692.25;5035130;28;20034;-67
2020/12/15 04:52:04;;;;;;;13.40;7.15;;;;;;;7.21;82.13;100726.25;5034004;28;20029;-67
2020/12/15 04:54:34;;;;;;;7.35;4.80;;;;;;;7.15;82.11;100724.84;5034702;28;20033;-67
2020/12/15 04:57:03;;;;;;;6.95;4.35;;;;;;;7.04;81.81;100701.22;5033462;28;20072;-66
2020/12/15 04:59:34;;;;;;;8.43;4.65;;;;;;;7.22;81.50;100736.59;5034558;28;20057;-67
2020/12/15 05:02:03;;;;;;;8.63;4.60;;;;;;;7.06;81.25;100733.25;5034770;28;20029;-67
2020/12/15 05:04:39;;;;;;;6.72;4.15;;;;;;;7.08;81.07;100741.78;5034669;28;20036;-66
2020/12/15 05:07:06;;;;;;;7.60;5.05;;;;;;;6.92;81.05;100717.56;5034577;28;20034;-66
2020/12/15 05:09:33;;;;;;;6.82;4.00;;;;;;;7.17;80.99;100740.41;5034481;28;20037;-67
2020/12/15 05:11:59;;;;;;;7.70;3.92;;;;;;;7.07;81.75;100733.13;5034284;28;20099;-67
2020/12/15 05:14:25;;;;;;;5.22;2.83;;;;;;;6.83;80.75;100709.38;5034528;28;20488;-66
2020/12/15 05:16:51;;;;;;;6.28;3.95;;;;;;;6.88;81.40;100716.06;5034334;28;20034;-66
2020/12/15 05:19:17;;;;;;;6.55;3.42;;;;;;;7.03;81.21;100749.06;5033310;28;20030;-66
2020/12/15 05:22:01;;;;;;;8.73;4.53;;;;;;;6.97;81.70;100747.63;5034632;28;20025;-66
2020/12/15 05:24:28;;;;;;;6.30;4.07;;;;;;;7.07;81.87;100761.81;5033788;28;20045;-67
2020/12/15 05:27:01;;;;;;;5.82;3.90;;;;;;;7.01;81.32;100763.94;5034380;28;20029;-67
2020/12/15 05:29:27;;;;;;;6.65;3.90;;;;;;;7.02;82.24;100763.00;5034390;28;20030;-66
2020/12/15 05:31:54;;;;;;;5.25;3.33;;;;;;;6.93;81.41;100734.91;5033918;28;20022;-66
2020/12/15 05:34:25;;;;;;;8.60;4.38;;;;;;;6.88;81.18;100723.88;5034355;28;20034;-66
2020/12/15 05:36:51;;;;;;;6.28;4.47;;;;;;;7.13;81.21;100765.81;5034225;28;20048;-67
2020/12/15 05:39:17;;;;;;;7.30;4.93;;;;;;;7.16;81.18;100765.66;5033209;28;20034;-66
2020/12/15 05:41:43;;;;;;;6.47;4.03;;;;;;;7.10;80.35;100761.63;5034765;28;20048;-67
2020/12/15 05:44:09;;;;;;;6.93;4.55;;;;;;;6.82;80.77;100715.53;5033817;28;20401;-66
2020/12/15 05:46:36;;;;;;;6.20;4.10;;;;;;;7.10;81.31;100745.16;5034035;28;20156;-67
2020/12/15 05:49:04;;;;;;;6.65;3.95;;;;;;;7.00;80.33;100749.25;5032720;28;20033;-67
2020/12/15 05:51:39;;;;;;;6.80;3.90;;;;;;;7.12;82.05;100785.00;5033946;28;20017;-67
2020/12/15 05:54:09;;;;;;;10.27;5.05;;;;;;;6.77;83.29;100753.19;5033815;28;20033;-67
2020/12/15 05:56:37;;;;;;;11.65;5.00;;;;;;;6.86;84.32;100766.53;5033717;28;20038;-67
2020/12/15 05:59:20;;;;;;;9.10;5.63;;;;;;;6.97;83.15;100804.13;5033820;28;20541;-67
2020/12/15 06:01:48;;;;;;;6.53;4.28;;;;;;;7.01;81.05;100796.03;5033722;28;20033;-67
2020/12/15 06:04:14;;;;;;;9.23;4.85;;;;;;;6.78;83.47;100780.91;5033613;28;20021;-67
2020/12/15 06:06:41;;;;;;;11.43;5.97;;;;;;;6.71;85.14;100790.00;5032728;28;20033;-67
2020/12/15 06:09:08;;;;;;;14.25;6.35;;;;;;;6.71;86.09;100810.84;5033277;28;20120;-67
2020/12/15 06:11:37;;;;;;;14.80;6.15;;;;;;;6.73;86.61;100815.03;5032549;28;20029;-66
2020/12/15 06:14:03;;;;;;;7.72;4.95;;;;;;;6.79;84.83;100816.47;5033527;28;20037;-67
2020/12/15 06:16:28;;;;;;;7.22;5.00;;;;;;;6.67;84.11;100804.13;5033463;28;20543;-67
2020/12/15 06:18:54;;;;;;;6.18;3.88;;;;;;;6.90;82.69;100823.66;5033175;28;20026;-66
2020/12/15 06:21:20;;;;;;;6.82;4.97;;;;;;;6.85;82.65;100827.38;5033413;28;20028;-66
2020/12/15 06:23:45;;;;;;;7.28;4.57;;;;;;;6.71;83.14;100836.91;5032350;28;20045;-67
2020/12/15 06:26:10;;;;;;;12.30;6.30;;;;;;;6.27;85.38;100812.41;5032845;28;20025;-66
2020/12/15 06:28:36;;;;;;;11.10;6.22;;;;;;;6.17;86.96;100847.69;5032396;28;20039;-67
2020/12/15 06:31:01;;;;;;;11.25;6.30;;;;;;;6.23;86.94;100842.16;5032307;28;20025;-66
2020/12/15 06:33:34;;;;;;;11.27;6.68;;;;;;;6.13;86.58;100846.16;5032204;28;20029;-67
2020/12/15 06:36:00;;;;;;;12.32;7.57;;;;;;;6.37;85.78;100854.41;5032705;28;20025;-66
2020/12/15 06:38:26;;;;;;;6.15;4.13;;;;;;;6.34;84.73;100844.97;5031619;28;20185;-67
2020/12/15 06:40:51;;;;;;;9.23;6.35;;;;;;;6.05;85.38;100801.53;5031437;28;20477;-67
2020/12/15 06:43:28;;;;;;;10.90;7.10;;;;;;;6.11;87.30;100822.00;5032138;28;20083;-67
2020/12/15 06:46:12;;;;;;;9.77;5.82;;;;;;;6.16;87.36;100830.38;5028420;28;20021;-67
2020/12/15 06:48:39;;;;;;;8.32;5.80;;;;;;;6.41;87.12;100862.88;5030068;28;20033;-68
2020/12/15 06:51:04;;;;;;;9.85;5.05;;;;;;;6.32;86.97;100830.41;5032192;28;20485;-67
2020/12/15 06:53:30;;;;;;;8.20;5.35;;;;;;;6.22;87.37;100827.47;5032158;28;20021;-67
2020/12/15 06:55:59;;;;;;;9.80;5.78;;;;;;;6.47;86.72;100867.75;5031891;28;20022;-68
2020/12/15 06:58:24;;;;;;;27.52;16.60;;;;;;;6.11;86.64;100838.47;5031508;28;20060;-66
2020/12/15 07:00:50;;;;;;;17.30;8.75;;;;;;;6.20;87.19;100872.72;5030952;28;20021;-67
2020/12/15 07:03:19;;;;;;;15.30;10.35;;;;;;;6.31;87.64;100871.22;5032062;28;20029;-70
2020/12/15 07:05:45;;;;;;;9.80;6.95;;;;;;;6.13;88.70;100856.59;5031831;28;20051;-67
2020/12/15 07:08:12;;;;;;;8.05;5.40;;;;;;;6.18;89.02;100884.97;5031394;28;20034;-67
2020/12/15 07:10:44;;;;;;;10.93;6.20;;;;;;;6.20;89.02;100880.50;5031676;28;20104;-67
2020/12/15 07:13:13;;;;;;;10.80;6.63;;;;;;;6.28;88.33;100881.78;5030825;28;20044;-66
2020/12/15 07:15:38;;;;;;;9.25;6.35;;;;;;;6.47;88.12;100880.78;5030720;28;20036;-66
2020/12/15 07:18:05;;;;;;;14.50;9.05;;;;;;;6.53;86.87;100859.59;5030779;28;20033;-67
2020/12/15 07:20:31;;;;;;;10.70;7.82;;;;;;;6.65;87.49;100879.78;5030133;28;20053;-68
2020/12/15 07:22:56;;;;;;;15.30;7.95;;;;;;;6.64;88.15;100888.50;5025030;28;20084;-68
2020/12/15 07:25:23;;;;;;;18.95;5.95;;;;;;;6.50;89.04;100865.00;5030547;28;20042;-67
2020/12/15 07:27:49;;;;;;;14.27;8.32;;;;;;;6.83;89.59;100877.91;5030744;28;20048;-67
2020/12/15 07:30:17;;;;;;;19.08;12.13;;;;;;;7.17;89.11;100897.66;5031432;28;20029;-67
2020/12/15 07:32:43;;;;;;;10.90;9.10;;;;;;;7.33;85.60;100906.28;5027133;28;20416;-69
2020/12/15 07:35:24;;;;;;;11.52;8.07;;;;;;;7.32;85.35;100896.78;5014051;28;20021;-69
2020/12/15 07:37:56;;;;;;;14.13;9.55;;;;;;;7.07;84.26;100881.69;5024259;28;20036;-68
2020/12/15 07:40:22;;;;;;;15.10;6.35;;;;;;;7.20;83.90;100897.47;5014967;28;20057;-67
2020/12/15 07:43:02;;;;;;;9.80;7.13;;;;;;;7.40;80.08;100911.97;5022588;28;20025;-68
2020/12/15 07:45:31;;;;;;;7.68;5.15;;;;;;;7.48;79.75;100907.13;5021281;28;20492;-68
2020/12/15 07:47:57;;;;;;;4.82;3.03;;;;;;;7.31;77.86;100878.59;5017035;28;20045;-68
2020/12/15 07:50:28;;;;;;;5.60;3.28;;;;;;;7.57;78.95;100879.69;5017734;28;20056;-68
2020/12/15 07:53:07;;;;;;;7.68;3.47;;;;;;;7.67;78.24;100880.81;5026032;28;20492;-67
2020/12/15 07:55:32;;;;;;;5.78;3.78;;;;;;;7.65;76.98;100885.25;5024426;28;20048;-67
2020/12/15 07:57:58;;;;;;;6.30;3.72;;;;;;;7.79;75.95;100884.44;5021849;28;20026;-68
2020/12/15 08:00:23;;;;;;;6.97;4.18;;;;;;;8.17;78.99;100908.22;5020938;28;20041;-68
2020/12/15 08:02:50;;;;;;;7.35;3.30;;;;;;;8.25;75.27;100919.00;5026152;28;20122;-69
2020/12/15 08:05:21;;;;;;;5.57;3.40;;;;;;;8.24;76.17;100891.22;5020609;28;20042;-69
2020/12/15 08:07:55;;;;;;;6.78;3.30;;;;;;;8.44;77.33;100908.31;5023444;28;20144;-67
2020/12/15 08:10:29;;;;;;;6.03;3.30;;;;;;;8.33;76.70;100891.56;5021290;28;20119;-68
2020/12/15 08:12:56;;;;;;;5.45;3.35;;;;;;;8.26;76.50;100886.72;5021800;28;20038;-70
2020/12/15 08:15:22;;;;;;;6.50;3.40;;;;;;;8.47;78.41;100896.81;5016809;28;20420;-67
2020/12/15 08:17:50;;;;;;;6.57;3.45;;;;;;;8.78;77.02;100910.56;5023791;28;20032;-67
2020/12/15 08:20:17;;;;;;;7.68;4.28;;;;;;;8.79;78.21;100899.16;5018360;28;20045;-68
2020/12/15 08:22:45;;;;;;;5.65;3.08;;;;;;;9.13;77.64;100916.09;5023024;28;20053;-67
2020/12/15 08:25:13;;;;;;;8.90;3.92;;;;;;;9.15;74.66;100915.06;5022691;28;20049;-67
2020/12/15 08:27:40;;;;;;;6.10;3.72;;;;;;;9.14;74.02;100929.06;5023907;28;20060;-67
2020/12/15 08:30:31;;;;;;;7.60;4.28;;;;;;;9.42;74.73;100927.28;5031693;28;20424;-66
2020/12/15 08:32:56;;;;;;;6.47;3.40;;;;;;;9.64;74.53;100927.50;5033767;28;20125;-66
2020/12/15 08:35:24;;;;;;;5.03;3.05;;;;;;;9.70;73.88;100900.06;5035485;28;20051;-67
2020/12/15 08:37:58;;;;;;;6.53;4.00;;;;;;;9.50;73.69;100908.44;5035213;28;20029;-66
2020/12/15 08:40:24;;;;;;;7.15;4.43;;;;;;;9.40;74.09;100906.44;5033743;28;20025;-67
2020/12/15 08:42:54;;;;;;;8.75;5.18;;;;;;;9.36;74.19;100901.50;5034279;28;20560;-66
2020/12/15 08:45:25;;;;;;;10.50;5.30;;;;;;;9.53;75.41;100922.16;5035213;28;20489;-66
2020/12/15 08:47:52;;;;;;;6.95;4.65;;;;;;;9.40;73.59;100902.97;5035582;28;20033;-66
2020/12/15 08:50:17;;;;;;;12.30;7.57;;;;;;;9.46;75.20;100908.63;5035157;28;20034;-66
2020/12/15 08:52:43;;;;;;;12.93;7.72;;;;;;;9.50;75.53;100911.88;5035072;28;20453;-67
2020/12/15 08:55:10;;;;;;;10.27;5.22;;;;;;;9.55;74.01;100920.28;5034756;28;20385;-67
2020/12/15 08:57:36;;;;;;;12.93;6.32;;;;;;;9.49;74.54;100891.91;5033503;28;20112;-67
2020/12/15 09:00:16;;;;;;;11.25;6.00;;;;;;;9.76;75.96;100901.44;5035261;28;20023;-67
2020/12/15 09:02:42;;;;;;;10.35;5.40;;;;;;;9.96;75.98;100914.00;5034867;28;20021;-67
2020/12/15 09:05:12;;;;;;;7.47;4.50;;;;;;;10.16;73.74;100910.00;5034669;28;20112;-67
2020/12/15 09:07:38;;;;;;;6.40;3.72;;;;;;;10.00;72.19;100878.78;5034546;28;20026;-66
2020/12/15 09:10:16;;;;;;;10.02;6.00;;;;;;;10.07;72.02;100881.81;5035268;28;20040;-66
2020/12/15 09:12:46;;;;;;;7.78;3.15;;;;;;;9.99;71.27;100885.00;5034948;28;20025;-66
2020/12/15 09:15:12;;;;;;;14.02;6.85;;;;;;;10.21;71.57;100900.03;5034802;28;20025;-66
2020/12/15 09:17:38;;;;;;;18.08;10.10;;;;;;;10.02;72.94;100884.75;5034531;28;20064;-67
2020/12/15 09:20:05;;;;;;;24.50;12.57;;;;;;;10.15;73.00;100880.31;5034796;28;20021;-67
2020/12/15 09:22:31;;;;;;;13.15;8.18;;;;;;;10.24;70.33;100896.34;5034644;28;20550;-67
2020/12/15 09:25:01;;;;;;;11.68;6.95;;;;;;;10.29;72.29;100892.50;5034438;28;20030;-67
2020/12/15 09:27:27;;;;;;;9.82;5.40;;;;;;;10.46;71.93;100898.31;5034562;28;20043;-67
2020/12/15 09:29:53;;;;;;;7.28;4.65;;;;;;;10.54;70.30;100896.81;5034204;28;20122;-66
2020/12/15 09:32:19;;;;;;;8.07;3.95;;;;;;;10.49;69.58;100879.75;5034019;28;20447;-67
2020/12/15 09:34:46;;;;;;;6.22;4.15;;;;;;;10.71;69.48;100892.16;5034338;28;20025;-67
2020/12/15 09:37:12;;;;;;;9.05;4.45;;;;;;;10.36;68.89;100843.09;5033867;28;20507;-66
2020/12/15 09:39:39;;;;;;;5.65;3.88;;;;;;;10.64;67.83;100897.00;5033558;28;20526;-66
2020/12/15 09:42:05;;;;;;;6.40;3.80;;;;;;;10.76;68.60;100892.66;5032085;28;20095;-68
2020/12/15 09:44:31;;;;;;;6.07;3.90;;;;;;;10.52;68.50;100864.63;5018355;28;20025;-68
2020/12/15 09:46:57;;;;;;;8.98;5.93;;;;;;;10.71;68.01;100894.78;5018916;28;20033;-69
2020/12/15 09:49:22;;;;;;;7.70;5.63;;;;;;;10.56;69.79;100866.13;5022509;28;20398;-68
2020/12/15 09:51:48;;;;;;;7.43;4.45;;;;;;;10.58;68.35;100856.34;5023076;28;20377;-68
2020/12/15 09:54:13;;;;;;;5.40;3.50;;;;;;;10.69;67.27;100866.03;5022644;28;20484;-69
2020/12/15 09:56:43;;;;;;;5.63;3.60;;;;;;;10.83;67.47;100865.88;5024373;28;20157;-68
2020/12/15 09:59:12;;;;;;;6.57;3.78;;;;;;;10.70;67.32;100864.25;5026552;28;20108;-67
2020/12/15 10:01:42;;;;;;;7.55;4.47;;;;;;;10.83;68.27;100896.50;5013321;28;20034;-69
2020/12/15 10:04:08;;;;;;;8.02;4.43;;;;;;;10.74;66.41;100866.56;5023758;28;20079;-67
2020/12/15 10:06:34;;;;;;;7.88;4.25;;;;;;;10.76;67.80;100863.81;5020847;28;20045;-67
2020/12/15 10:09:00;;;;;;;7.70;4.55;;;;;;;10.96;67.12;100878.91;5020205;28;20569;-68
2020/12/15 10:11:25;;;;;;;7.72;3.90;;;;;;;10.82;65.60;100858.13;5020223;28;20080;-68
2020/12/15 10:13:51;;;;;;;6.75;3.78;;;;;;;11.03;68.47;100867.00;5022064;28;20029;-68
2020/12/15 10:16:17;;;;;;;6.63;3.67;;;;;;;11.02;67.20;100859.28;5023838;28;20021;-68
2020/12/15 10:18:43;;;;;;;5.95;3.13;;;;;;;11.18;66.37;100858.97;5022399;28;20022;-68
2020/12/15 10:21:08;;;;;;;5.40;3.08;;;;;;;11.07;63.65;100850.13;5021707;28;20060;-69
2020/12/15 10:23:35;;;;;;;4.97;3.30;;;;;;;11.22;65.45;100876.16;5025434;28;20139;-69
2020/12/15 10:26:05;;;;;;;8.43;4.82;;;;;;;11.03;66.53;100867.00;5024191;28;20037;-70
2020/12/15 10:28:31;;;;;;;6.50;4.22;;;;;;;11.00;65.57;100846.28;5025901;28;20071;-69
2020/12/15 10:30:57;;;;;;;8.45;5.22;;;;;;;11.25;65.37;100868.88;5020018;28;20033;-68
2020/12/15 10:33:23;;;;;;;6.00;4.05;;;;;;;11.06;63.80;100840.56;5022143;28;20040;-68
2020/12/15 10:35:48;;;;;;;6.63;4.07;;;;;;;11.19;66.54;100826.53;5024089;28;20064;-69
2020/12/15 10:38:14;;;;;;;8.65;4.00;;;;;;;11.52;64.84;100862.50;5014528;28;20101;-66
2020/12/15 10:40:40;;;;;;;8.02;4.30;;;;;;;11.38;67.04;100803.19;5050765;28;20043;-67
2020/12/15 10:43:05;;;;;;;5.13;3.00;;;;;;;11.89;64.48;100831.63;5032376;28;20493;-67
2020/12/15 10:45:31;;;;;;;6.68;4.10;;;;;;;11.90;66.53;100809.66;5033212;28;20041;-67
2020/12/15 10:47:56;;;;;;;6.75;4.10;;;;;;;12.31;64.95;100836.22;5032885;28;20017;-66
2020/12/15 10:50:22;;;;;;;7.90;4.25;;;;;;;12.08;62.60;100827.53;5032195;28;20026;-66
2020/12/15 10:52:47;;;;;;;8.15;5.18;;;;;;;12.25;63.59;100832.28;5032667;28;20068;-67
2020/12/15 10:55:13;;;;;;;6.50;3.80;;;;;;;12.36;61.86;100808.63;5032770;28;20033;-66
2020/12/15 10:57:38;;;;;;;6.45;3.97;;;;;;;12.72;63.21;100827.59;5032708;28;20025;-67
2020/12/15 11:00:06;;;;;;;8.40;4.20;;;;;;;12.41;63.33;100767.03;5044269;28;20040;-66
2020/12/15 11:02:32;;;;;;;8.68;5.10;;;;;;;12.86;63.33;100842.25;5052787;28;20086;-67
2020/12/15 11:04:58;;;;;;;7.72;4.53;;;;;;;12.70;63.06;100798.00;5041690;28;20160;-67
2020/12/15 11:07:23;;;;;;;10.05;5.45;;;;;;;12.75;62.80;100817.66;5032801;28;20022;-67
2020/12/15 11:09:49;;;;;;;8.90;4.40;;;;;;;12.36;63.95;100816.50;5031343;28;20053;-66
2020/12/15 11:12:14;;;;;;;7.45;4.22;;;;;;;12.22;63.32;100801.84;5032448;28;20079;-67
2020/12/15 11:14:39;;;;;;;8.93;5.30;;;;;;;12.55;63.47;100807.13;5032574;28;20036;-67
2020/12/15 11:17:05;;;;;;;6.35;4.45;;;;;;;12.51;62.08;100838.09;5032542;28;20365;-66
2020/12/15 11:19:30;;;;;;;7.43;4.10;;;;;;;12.54;63.14;100787.88;5033255;28;20392;-66
2020/12/15 11:21:56;;;;;;;6.85;4.15;;;;;;;12.91;61.95;100822.50;5036424;28;20543;-67
2020/12/15 11:24:22;;;;;;;8.43;3.95;;;;;;;13.03;62.55;100814.56;5041649;28;20045;-67
2020/12/15 11:26:50;;;;;;;7.63;4.25;;;;;;;12.68;62.95;100794.66;5052232;28;20451;-70
2020/12/15 11:29:16;;;;;;;7.63;4.55;;;;;;;13.07;62.32;100811.56;5052748;28;20035;-70